createdAt,value
2019-05-20T00:00:55.675Z,69.17
2019-05-20T00:05:59.926Z,69.32
2019-05-20T00:11:04.232Z,69.60
2019-05-20T00:16:08.567Z,69.77
2019-05-20T00:21:12.813Z,69.81
2019-05-20T00:26:17.144Z,69.93
2019-05-20T00:31:21.337Z,69.94
2019-05-20T00:36:25.546Z,69.98
2019-05-20T00:41:29.783Z,69.99
2019-05-20T00:46:33.990Z,69.92
2019-05-20T00:51:38.228Z,69.96
2019-05-20T00:56:42.427Z,70.11
2019-05-20T01:01:46.686Z,70.08
2019-05-20T01:06:51.171Z,70.30
2019-05-20T01:11:55.361Z,70.52
2019-05-20T01:16:59.664Z,70.60
2019-05-20T01:22:03.873Z,70.83
2019-05-20T01:27:08.093Z,71.08
2019-05-20T01:32:12.317Z,71.08
2019-05-20T01:37:16.516Z,71.31
2019-05-20T01:42:20.745Z,71.42
2019-05-20T01:47:24.968Z,71.60
2019-05-20T01:52:29.207Z,71.32
2019-05-20T01:57:33.420Z,71.31
2019-05-20T02:02:37.822Z,71.65
2019-05-20T02:07:42.052Z,71.68
2019-05-20T02:12:46.311Z,71.97
2019-05-20T02:17:50.511Z,72.16
2019-05-20T02:22:56.977Z,72.26
2019-05-20T02:28:01.189Z,72.38
2019-05-20T02:33:05.379Z,72.33
2019-05-20T02:38:09.576Z,72.34
2019-05-20T02:43:14.103Z,72.67
2019-05-20T02:48:18.335Z,72.72
2019-05-20T02:53:22.563Z,72.96
2019-05-20T02:58:26.771Z,73.47
2019-05-20T03:03:30.996Z,73.69
2019-05-20T03:08:35.204Z,73.92
2019-05-20T03:13:39.401Z,74.26
2019-05-20T03:18:43.601Z,74.18
2019-05-20T03:23:47.807Z,74.41
2019-05-20T03:28:52.004Z,74.35
2019-05-20T03:33:56.212Z,74.46
2019-05-20T03:39:00.614Z,74.81
2019-05-20T03:44:04.945Z,74.55
2019-05-20T03:49:09.179Z,74.37
2019-05-20T03:54:13.372Z,74.35
2019-05-20T03:59:17.594Z,74.45
2019-05-20T04:04:24.992Z,74.70
2019-05-20T04:09:27.739Z,74.57
2019-05-20T04:14:31.920Z,74.25
2019-05-20T04:19:36.217Z,74.39
2019-05-20T04:24:40.415Z,74.18
2019-05-20T04:29:44.818Z,73.99
2019-05-20T04:34:49.046Z,73.69
2019-05-20T04:39:53.281Z,73.50
2019-05-20T04:44:57.470Z,72.77
2019-05-20T04:50:01.686Z,72.59
2019-05-20T04:55:06.128Z,72.26
2019-05-20T05:00:10.926Z,72.11
2019-05-20T05:05:15.134Z,72.04
2019-05-20T05:10:19.323Z,71.74
2019-05-20T05:15:23.519Z,71.54
2019-05-20T05:20:27.716Z,70.89
2019-05-20T05:25:31.958Z,70.26
2019-05-20T05:30:37.277Z,69.68
2019-05-20T05:35:52.762Z,68.83
2019-05-20T05:40:47.386Z,68.25
2019-05-20T05:45:51.601Z,68.47
2019-05-20T05:50:55.805Z,68.04
2019-05-20T05:56:00.021Z,67.21
2019-05-20T06:01:04.222Z,66.49
2019-05-20T06:06:12.651Z,65.74
2019-05-20T06:11:14.717Z,65.82
2019-05-20T06:16:35.440Z,65.94
2019-05-20T06:21:24.903Z,65.46
2019-05-20T06:26:29.113Z,64.20
2019-05-20T06:31:33.330Z,63.44
2019-05-20T06:36:42.399Z,62.54
2019-05-20T06:41:46.628Z,61.89
2019-05-20T06:46:50.845Z,61.60
2019-05-20T06:51:55.052Z,60.85
2019-05-20T06:56:59.300Z,60.33
2019-05-20T07:02:03.618Z,60.67
2019-05-20T07:07:20.604Z,60.67
2019-05-20T07:12:13.845Z,61.16
2019-05-20T07:17:18.054Z,60.83
2019-05-20T07:22:22.296Z,59.39
2019-05-20T07:27:26.493Z,58.46
2019-05-20T07:32:30.700Z,58.38
2019-05-20T07:37:34.918Z,57.59
2019-05-20T07:42:39.186Z,57.22
2019-05-20T07:47:43.981Z,56.81
2019-05-20T07:52:48.284Z,55.61
2019-05-20T07:57:54.922Z,54.53
2019-05-20T08:02:59.427Z,54.38
2019-05-20T08:13:06.580Z,53.19
2019-05-20T08:18:10.791Z,53.13
2019-05-20T08:23:14.987Z,53.16
2019-05-20T08:28:19.197Z,52.20
2019-05-20T08:33:23.502Z,52.27
2019-05-20T08:38:27.724Z,51.58
2019-05-20T08:43:31.895Z,51.24
2019-05-20T08:48:36.103Z,51.25
2019-05-20T08:53:40.692Z,51.06
2019-05-20T08:58:44.901Z,49.75
2019-05-20T09:03:49.091Z,47.17
2019-05-20T09:08:53.321Z,48.77
2019-05-20T09:13:57.577Z,45.03
2019-05-20T09:19:01.757Z,43.88
2019-05-20T09:24:06.310Z,43.19
2019-05-20T09:29:11.537Z,41.28
2019-05-20T09:34:16.273Z,40.99
2019-05-20T09:39:20.520Z,41.27
2019-05-20T09:44:24.792Z,40.96
2019-05-20T09:49:29.016Z,40.76
2019-05-20T09:54:33.228Z,40.33
2019-05-20T09:59:43.423Z,41.04
2019-05-20T10:04:43.477Z,41.13
2019-05-20T10:09:47.673Z,39.84
2019-05-20T10:14:52.883Z,39.45
2019-05-20T10:19:57.174Z,40.10
2019-05-20T10:25:01.713Z,39.65
2019-05-20T10:30:06.862Z,39.28
2019-05-20T10:35:11.508Z,37.15
2019-05-20T10:40:16.002Z,37.81
2019-05-20T10:45:20.205Z,36.49
2019-05-20T10:50:24.400Z,36.21
2019-05-20T10:55:28.613Z,35.01
2019-05-20T11:00:32.962Z,35.44
2019-05-20T11:05:37.138Z,35.09
2019-05-20T11:10:41.320Z,35.50
2019-05-20T11:15:45.572Z,36.02
2019-05-20T11:20:49.765Z,37.37
2019-05-20T11:25:54.034Z,37.75
2019-05-20T11:30:58.419Z,38.58
2019-05-20T11:36:02.608Z,38.79
2019-05-20T11:41:06.792Z,38.23
2019-05-20T11:46:12.119Z,38.41
2019-05-20T11:51:16.315Z,38.13
2019-05-20T11:56:20.508Z,37.28
2019-05-20T12:01:24.735Z,36.63
2019-05-20T12:06:28.947Z,36.99
2019-05-20T12:11:33.135Z,37.15
2019-05-20T12:16:37.461Z,38.11
2019-05-20T12:21:41.667Z,38.70
2019-05-20T12:26:45.854Z,38.98
2019-05-20T12:31:50.038Z,39.24
2019-05-20T12:36:54.276Z,38.56
2019-05-20T12:41:58.449Z,38.43
2019-05-20T12:47:03.353Z,39.04
2019-05-20T12:52:07.569Z,40.21
2019-05-20T12:57:11.802Z,40.57
2019-05-20T13:02:17.476Z,40.88
2019-05-20T13:07:21.900Z,41.96
2019-05-20T13:12:26.091Z,42.31
2019-05-20T13:17:30.324Z,42.20
2019-05-20T13:22:34.497Z,42.38
2019-05-20T13:27:38.691Z,42.99
2019-05-20T13:32:42.994Z,43.63
2019-05-20T13:37:47.201Z,44.27
2019-05-20T13:42:51.493Z,45.66
2019-05-20T13:47:55.684Z,46.64
2019-05-20T13:52:59.872Z,47.37
2019-05-20T13:58:04.258Z,47.77
2019-05-20T14:03:08.515Z,48.27
2019-05-20T14:08:12.756Z,48.78
2019-05-20T14:13:17.023Z,49.30
2019-05-20T14:18:21.224Z,50.77
2019-05-20T14:23:25.438Z,51.56
2019-05-20T14:28:29.629Z,52.31
2019-05-20T14:33:33.861Z,55.12
2019-05-20T14:38:38.080Z,57.93
2019-05-20T14:43:42.340Z,60.16
2019-05-20T14:48:46.523Z,62.59
2019-05-20T14:53:50.765Z,64.35
2019-05-20T14:58:55.857Z,66.76
2019-05-20T15:04:00.169Z,68.22
2019-05-20T15:09:05.160Z,69.02
2019-05-20T15:14:09.396Z,69.26
2019-05-20T15:19:13.601Z,68.74
2019-05-20T15:24:17.798Z,69.70
2019-05-20T15:29:27.989Z,70.63
2019-05-20T15:34:27.968Z,72.10
2019-05-20T15:39:32.272Z,70.75
2019-05-20T15:44:36.475Z,73.18
2019-05-20T15:49:40.712Z,72.18
2019-05-20T15:54:44.932Z,78.52
2019-05-20T15:59:49.146Z,78.52
2019-05-20T16:04:53.438Z,76.67
2019-05-20T16:09:57.625Z,75.86
2019-05-20T16:15:01.853Z,75.38
2019-05-20T16:20:07.288Z,74.96
2019-05-20T16:25:12.082Z,74.31
2019-05-20T16:30:16.592Z,73.45
2019-05-20T16:35:21.006Z,73.19
2019-05-20T16:40:25.199Z,71.69
2019-05-20T16:45:29.385Z,69.83
2019-05-20T16:50:33.757Z,71.32
2019-05-20T16:55:37.962Z,72.52
2019-05-20T17:00:43.114Z,72.08
2019-05-20T17:05:47.333Z,72.60
2019-05-20T17:10:51.556Z,73.64
2019-05-20T17:15:55.805Z,76.03
2019-05-20T17:20:59.991Z,76.28
2019-05-20T17:26:04.227Z,76.27
2019-05-20T17:31:08.425Z,76.78
2019-05-20T17:36:12.710Z,76.69
2019-05-20T17:41:16.908Z,74.98
2019-05-20T17:46:21.233Z,74.23
2019-05-20T17:51:25.451Z,73.88
2019-05-20T17:56:29.841Z,73.96
2019-05-20T18:01:34.082Z,74.79
2019-05-20T18:06:38.273Z,74.79
2019-05-20T18:11:42.482Z,74.98
2019-05-20T18:16:46.733Z,74.98
2019-05-20T18:21:50.975Z,75.64
2019-05-20T18:26:55.186Z,76.60
2019-05-20T18:31:59.449Z,76.87
2019-05-20T18:37:04.157Z,78.06
2019-05-20T18:42:08.390Z,77.19
2019-05-20T18:47:13.031Z,78.26
2019-05-20T18:52:17.341Z,77.89
2019-05-20T18:57:21.598Z,78.01
2019-05-20T19:02:26.845Z,78.51
2019-05-20T19:07:31.131Z,78.77
2019-05-20T19:12:35.404Z,78.84
2019-05-20T19:17:39.651Z,78.05
2019-05-20T19:22:43.878Z,78.05
2019-05-20T19:27:48.106Z,78.83
2019-05-20T19:32:52.398Z,79.18
2019-05-20T19:37:57.025Z,79.18
2019-05-20T19:43:01.538Z,79.17
2019-05-20T19:48:05.775Z,79.31
2019-05-20T19:53:10.149Z,79.87
2019-05-20T19:58:14.456Z,80.15
2019-05-20T20:03:18.671Z,80.18
2019-05-20T20:08:22.896Z,80.64
2019-05-20T20:13:28.243Z,80.85
2019-05-20T20:18:32.466Z,81.24
2019-05-20T20:23:36.697Z,80.95
2019-05-20T20:28:40.940Z,80.58
2019-05-20T20:33:45.171Z,80.56
2019-05-20T20:38:49.409Z,80.19
2019-05-20T20:43:53.640Z,80.72
2019-05-20T20:48:57.875Z,81.32
2019-05-20T20:54:02.492Z,80.62
2019-05-20T20:59:06.716Z,79.51
2019-05-20T21:04:10.949Z,78.88
2019-05-20T21:09:15.182Z,79.33
2019-05-20T21:14:19.419Z,79.64
2019-05-20T21:19:23.623Z,80.08
2019-05-20T21:24:27.833Z,80.38
2019-05-20T21:29:32.745Z,80.01
2019-05-20T21:34:37.130Z,79.92
2019-05-20T21:39:41.338Z,79.94
2019-05-20T21:44:45.544Z,79.80
2019-05-20T21:49:49.736Z,79.67
2019-05-20T21:54:53.976Z,79.44
2019-05-20T21:59:58.173Z,79.60
2019-05-20T22:05:02.870Z,79.82
2019-05-20T22:10:07.463Z,79.96
2019-05-20T22:15:11.778Z,79.56
2019-05-20T22:20:16.498Z,79.84
2019-05-20T22:25:20.802Z,80.17
2019-05-20T22:30:25.001Z,80.37
2019-05-20T22:35:29.228Z,79.88
2019-05-20T22:40:33.431Z,79.99
2019-05-20T22:45:37.639Z,80.41
2019-05-20T22:50:41.887Z,80.65
2019-05-20T22:55:46.078Z,80.24
2019-05-20T23:00:50.308Z,80.23
2019-05-20T23:05:54.490Z,80.62
2019-05-20T23:10:58.696Z,80.68
2019-05-20T23:16:02.889Z,80.77
2019-05-20T23:21:07.152Z,81.13
2019-05-20T23:26:11.374Z,81.03
2019-05-20T23:31:15.579Z,81.23
2019-05-20T23:36:19.834Z,80.95
2019-05-20T23:41:24.028Z,81.21
2019-05-20T23:46:28.247Z,81.34
2019-05-20T23:51:32.449Z,81.75
2019-05-20T23:56:36.657Z,81.81
